Airfield :
LOGIN :

Register | Disclaimer

   EN    FR    IT 

 










Legend :    VFR   Marginal VFR   IFR   Intensive IFR   Very Intensive IFR
Visi :
Ceiling :
>= 8 km
>= 3000ft
5 to 8 km
1000 to 3000 ft
1500m to 5 km
500 to 1000 ft
800 to 1500m
200 to 500 ft
< 800m
< 200 ft
Symbols :   Thunderstorms  Fog  Heavy snow  Heavy precipitations  Wind > 20 kt
SIGMETs :     Misc.  Thunderstorms  Icing  Turbulence  Mountain Waves  Volcanic Ashes






- Airport Elevation : 659 ft
- IATA code : LGG


EBLG - Liège

CURRENT METAR :
  • 170650Z 13005KT 8000 NSC 01/M00 Q1011 NOSIG

EXPIRED METARs :
  • 170620Z 13007KT CAVOK 01/M00 Q1011 NOSIG
  • 170550Z 13007KT CAVOK 01/M00 Q1011 NOSIG
  • 170520Z 13007KT 9999 FEW030 02/M00 Q1011 NOSIG
  • 170450Z 13005KT CAVOK 02/M00 Q1010 NOSIG
  • 170420Z 13008KT CAVOK 02/M00 Q1010 NOSIG

TAF TAF EBLG
Valid from the 17 at 06:00 until the 18 at 12:00 UTC


170513Z 1706/1812 03005KT 9999 FEW035
PROB40
TEMPO 1706/1710 4000 BR
PROB30
TEMPO 1706/1709 0600 FZFG BKN001
TEMPO 1719/1812 3500 RA RADZ BKN005
BECMG 1721/1723 34010KT



MET'MAP, your aeronautical weather chart ! - Copyright ORBIFLY December 2007 - Disclaimer

ORBIFLY MET'MAP TEAM :

Programming & Development : Alexandra Zaïnal
Concept & Development : Baudouin d'Aumeries
Co-Development & Prog : Marc-Olivier Méhu
Technical & hardware support : Manuel Goepfert

Contact : metmap@orbifly.com




SOURCES & CREDITS :

   NOAA